Time;durP1;ratioP1;P1;durP2;ratioP2;P2;SDS_P1;SDS_P2;PMS_P1;PMS_P2;Temp;Humidity;BMP_temperature;BMP_pressure;BME280_temperature;BME280_humidity;BME280_pressure;Samples;Min_cycle;Max_cycle;Signal;HPM_P1;HPM_P2
2023/04/21 00:00:55;;;;;;;45.22;10.25;;;10.90;90.80;;;;;;5045388;28;20049;-56
2023/04/21 00:03:22;;;;;;;46.58;10.23;;;10.90;90.80;;;;;;5046603;28;20539;-56
2023/04/21 00:05:48;;;;;;;52.05;10.57;;;10.80;90.80;;;;;;5046619;28;20068;-56
2023/04/21 00:08:14;;;;;;;53.58;10.40;;;10.80;90.80;;;;;;5046664;28;20033;-56
2023/04/21 00:10:40;;;;;;;43.92;9.00;;;10.80;90.80;;;;;;5046541;28;20041;-56
2023/04/21 00:13:05;;;;;;;53.65;10.75;;;10.80;90.90;;;;;;5044929;28;20032;-56
2023/04/21 00:15:31;;;;;;;54.83;10.00;;;10.80;90.80;;;;;;5046651;28;20057;-57
2023/04/21 00:17:57;;;;;;;50.75;9.88;;;10.80;90.80;;;;;;5045079;28;20038;-56
2023/04/21 00:20:25;;;;;;;55.20;10.20;;;10.80;90.80;;;;;;5046467;28;20051;-56
2023/04/21 00:22:52;;;;;;;48.45;9.60;;;10.90;90.80;;;;;;5046215;28;20091;-56
2023/04/21 00:25:17;;;;;;;38.58;8.77;;;10.70;90.80;;;;;;5045901;28;20108;-56
2023/04/21 00:27:43;;;;;;;46.17;8.48;;;10.70;90.80;;;;;;5046265;28;20105;-56
2023/04/21 00:30:09;;;;;;;42.55;8.88;;;10.70;90.70;;;;;;5045971;28;20466;-56
2023/04/21 00:32:34;;;;;;;43.42;9.85;;;10.70;90.70;;;;;;5045979;28;20030;-56
2023/04/21 00:35:00;;;;;;;51.35;9.38;;;10.90;90.70;;;;;;5046166;28;20045;-56
2023/04/21 00:37:26;;;;;;;37.15;8.63;;;10.70;90.70;;;;;;5045949;28;20030;-56
2023/04/21 00:39:51;;;;;;;37.05;8.32;;;10.80;90.80;;;;;;5045801;28;20021;-56
2023/04/21 00:42:17;;;;;;;42.55;8.60;;;10.70;90.70;;;;;;5045937;28;20025;-56
2023/04/21 00:44:42;;;;;;;40.70;8.65;;;10.60;90.80;;;;;;5045842;28;20186;-56
2023/04/21 00:47:08;;;;;;;36.22;8.23;;;10.60;90.80;;;;;;5044457;28;20038;-56
2023/04/21 00:49:34;;;;;;;41.50;8.45;;;10.60;90.70;;;;;;5045761;28;20026;-57
2023/04/21 00:51:59;;;;;;;39.80;8.57;;;10.60;90.70;;;;;;5045739;28;20038;-56
2023/04/21 00:54:25;;;;;;;37.83;8.20;;;10.60;90.70;;;;;;5044212;28;20042;-56
2023/04/21 00:56:50;;;;;;;28.05;7.72;;;10.60;90.70;;;;;;5044498;28;20034;-56
2023/04/21 00:59:16;;;;;;;34.60;7.85;;;10.80;90.80;;;;;;5045568;28;20044;-56
2023/04/21 01:01:41;;;;;;;34.60;8.15;;;10.60;90.80;;;;;;5045700;28;20041;-56
2023/04/21 01:04:09;;;;;;;32.92;7.88;;;10.50;90.90;;;;;;5045507;28;20078;-56
2023/04/21 01:06:34;;;;;;;32.03;7.95;;;10.50;90.70;;;;;;5046268;28;20025;-56
2023/04/21 01:09:00;;;;;;;38.13;8.05;;;10.50;90.80;;;;;;5045375;28;20025;-56
2023/04/21 01:11:25;;;;;;;30.88;7.32;;;10.50;90.80;;;;;;5044137;28;20084;-56
2023/04/21 01:13:53;;;;;;;28.40;7.97;;;10.50;90.80;;;;;;5045226;28;20030;-56
2023/04/21 01:16:19;;;;;;;33.58;7.20;;;10.50;90.70;;;;;;5045185;28;20030;-56
2023/04/21 01:18:44;;;;;;;28.52;6.65;;;10.50;90.70;;;;;;5045462;28;20072;-56
2023/04/21 01:21:10;;;;;;;31.05;7.18;;;10.50;90.80;;;;;;5045238;28;20033;-56
2023/04/21 01:23:36;;;;;;;27.55;7.15;;;10.60;90.80;;;;;;5043891;28;20029;-56
2023/04/21 01:26:02;;;;;;;28.65;7.40;;;10.40;90.80;;;;;;5045533;28;20386;-56
2023/04/21 01:28:27;;;;;;;28.00;7.95;;;10.40;90.80;;;;;;5044011;28;20035;-56
2023/04/21 01:30:53;;;;;;;30.38;7.32;;;10.50;90.80;;;;;;5045359;28;20056;-56
2023/04/21 01:33:19;;;;;;;25.30;7.32;;;10.40;90.80;;;;;;5043893;28;20036;-56
2023/04/21 01:35:44;;;;;;;29.20;7.90;;;10.40;90.80;;;;;;5043985;28;20052;-56
2023/04/21 01:38:10;;;;;;;25.92;7.10;;;10.50;90.80;;;;;;5045234;28;20045;-56
2023/04/21 01:40:36;;;;;;;28.60;7.80;;;10.40;90.80;;;;;;5043944;28;20048;-56
2023/04/21 01:43:02;;;;;;;29.77;7.50;;;10.40;90.80;;;;;;5045022;28;20120;-57
2023/04/21 01:45:29;;;;;;;24.85;7.32;;;10.40;90.80;;;;;;5044976;28;20029;-56
2023/04/21 01:47:54;;;;;;;26.40;7.78;;;10.40;90.80;;;;;;5044930;28;20150;-56
2023/04/21 01:50:20;;;;;;;22.85;6.93;;;10.50;90.80;;;;;;5045070;28;20433;-56
2023/04/21 01:52:46;;;;;;;27.35;8.82;;;10.30;90.80;;;;;;5045199;28;20029;-56
2023/04/21 01:55:11;;;;;;;29.38;7.45;;;10.30;90.80;;;;;;5045038;28;20061;-56
2023/04/21 01:57:37;;;;;;;20.63;8.60;;;10.30;90.80;;;;;;5045100;28;20025;-56
2023/04/21 02:00:03;;;;;;;29.70;7.40;;;10.30;90.80;;;;;;5044931;28;20033;-57
2023/04/21 02:02:29;;;;;;;20.58;8.23;;;10.20;90.80;;;;;;5045038;28;20050;-56
2023/04/21 02:04:54;;;;;;;19.92;7.32;;;10.30;90.80;;;;;;5044218;28;20030;-56
2023/04/21 02:07:20;;;;;;;25.10;7.45;;;10.40;90.90;;;;;;5047603;28;20029;-56
2023/04/21 02:09:45;;;;;;;19.67;7.63;;;10.30;90.80;;;;;;5047572;28;20040;-56
2023/04/21 02:12:11;;;;;;;23.40;7.82;;;10.40;90.80;;;;;;5048838;28;20030;-56
2023/04/21 02:14:37;;;;;;;22.83;7.35;;;10.30;90.80;;;;;;5048954;28;20470;-56
2023/04/21 02:17:03;;;;;;;23.98;7.90;;;10.30;90.80;;;;;;5049262;28;20056;-56
2023/04/21 02:19:29;;;;;;;21.33;8.13;;;10.30;90.80;;;;;;5047265;28;20030;-56
2023/04/21 02:21:55;;;;;;;18.50;8.00;;;10.20;90.80;;;;;;5047306;28;20028;-56
2023/04/21 02:24:20;;;;;;;24.52;8.60;;;10.30;91.20;;;;;;5048586;28;20045;-56
2023/04/21 02:26:46;;;;;;;30.33;8.32;;;10.30;91.00;;;;;;5048617;28;20029;-56
2023/04/21 02:29:11;;;;;;;17.58;8.18;;;10.30;91.10;;;;;;5048400;28;20435;-56
2023/04/21 02:31:37;;;;;;;19.08;8.02;;;10.30;91.10;;;;;;5048349;28;20068;-56
2023/04/21 02:34:03;;;;;;;21.58;8.90;;;10.30;91.10;;;;;;5048251;28;20048;-57
2023/04/21 02:36:28;;;;;;;28.17;9.63;;;10.20;91.10;;;;;;5047158;28;20045;-56
2023/04/21 02:38:54;;;;;;;30.88;9.02;;;10.20;91.20;;;;;;5048146;28;20057;-56
2023/04/21 02:41:19;;;;;;;23.88;8.88;;;10.20;91.30;;;;;;5048209;28;20030;-56
2023/04/21 02:43:45;;;;;;;19.73;9.68;;;10.20;91.20;;;;;;5048231;28;20032;-56
2023/04/21 02:46:11;;;;;;;24.95;8.98;;;10.20;91.30;;;;;;5046423;28;20117;-56
2023/04/21 02:48:36;;;;;;;19.70;8.75;;;10.20;91.50;;;;;;5047595;28;20025;-56
2023/04/21 02:51:03;;;;;;;21.30;8.98;;;10.20;91.30;;;;;;5048142;28;20493;-56
2023/04/21 02:53:28;;;;;;;20.83;9.15;;;10.20;91.20;;;;;;5047988;28;20146;-56
2023/04/21 02:55:54;;;;;;;22.98;8.85;;;10.20;91.20;;;;;;5048181;28;20140;-56
2023/04/21 02:58:20;;;;;;;21.80;8.50;;;10.20;91.30;;;;;;5047610;28;20033;-57
2023/04/21 03:00:45;;;;;;;19.63;8.57;;;10.20;91.20;;;;;;5047927;28;20026;-56
2023/04/21 03:03:11;;;;;;;15.35;8.93;;;10.30;91.20;;;;;;5046584;28;20026;-56
2023/04/21 03:05:36;;;;;;;25.38;9.02;;;10.20;91.20;;;;;;5047926;28;20029;-56
2023/04/21 03:08:02;;;;;;;16.55;8.55;;;10.20;91.20;;;;;;5047868;28;20044;-56
2023/04/21 03:10:28;;;;;;;21.67;8.43;;;10.20;91.60;;;;;;5046390;28;20422;-56
2023/04/21 03:12:55;;;;;;;21.25;9.18;;;10.20;91.30;;;;;;5047723;28;20034;-56
2023/04/21 03:15:21;;;;;;;20.20;7.97;;;10.20;91.30;;;;;;5047801;28;20115;-56
2023/04/21 03:17:47;;;;;;;19.08;8.63;;;10.20;91.30;;;;;;5046222;28;20029;-56
2023/04/21 03:20:12;;;;;;;19.60;8.48;;;10.20;91.30;;;;;;5047433;28;20032;-56
2023/04/21 03:22:38;;;;;;;20.27;7.97;;;10.20;91.20;;;;;;5047476;28;20026;-56
2023/04/21 03:25:04;;;;;;;13.82;8.30;;;10.20;91.30;;;;;;5047392;28;20033;-57
2023/04/21 03:27:30;;;;;;;18.17;7.93;;;10.10;91.30;;;;;;5047067;28;20033;-56
2023/04/21 03:29:55;;;;;;;15.65;7.28;;;10.20;91.30;;;;;;5047266;28;20029;-56
2023/04/21 03:32:21;;;;;;;16.05;8.73;;;10.10;91.60;;;;;;5047130;28;20029;-56
2023/04/21 03:34:47;;;;;;;19.70;8.85;;;10.10;91.60;;;;;;5046950;28;20446;-56
2023/04/21 03:37:12;;;;;;;16.00;8.40;;;10.10;91.30;;;;;;5047180;28;20056;-56
2023/04/21 03:39:38;;;;;;;65.32;13.05;;;10.10;91.30;;;;;;5029163;28;20025;-57
2023/04/21 03:42:03;;;;;;;40.55;11.50;;;10.10;91.30;;;;;;5047135;28;20136;-56
2023/04/21 03:44:29;;;;;;;27.85;10.68;;;10.10;91.40;;;;;;5047196;28;20105;-56
2023/04/21 03:46:56;;;;;;;20.25;9.27;;;10.10;91.40;;;;;;5046801;28;20033;-57
2023/04/21 03:49:22;;;;;;;38.53;10.10;;;10.30;91.40;;;;;;5046801;28;20059;-56
2023/04/21 03:51:47;;;;;;;27.08;10.30;;;10.00;91.40;;;;;;5046852;28;20037;-56
2023/04/21 03:54:13;;;;;;;40.28;11.43;;;10.30;91.50;;;;;;5046708;28;20055;-56
2023/04/21 03:56:38;;;;;;;38.13;10.93;;;10.00;91.40;;;;;;5046817;28;20474;-56
2023/04/21 03:59:05;;;;;;;33.15;10.85;;;10.00;91.30;;;;;;5046509;28;20060;-57
2023/04/21 04:01:30;;;;;;;27.95;10.52;;;10.00;91.30;;;;;;5046776;28;20018;-56
2023/04/21 04:03:56;;;;;;;31.85;10.70;;;10.10;91.40;;;;;;5046641;28;20100;-56
2023/04/21 04:06:21;;;;;;;31.10;10.60;;;10.00;91.40;;;;;;5045267;28;20064;-56
2023/04/21 04:08:47;;;;;;;25.92;10.82;;;10.00;91.40;;;;;;5046597;28;20432;-57
2023/04/21 04:11:12;;;;;;;34.20;10.57;;;9.90;91.40;;;;;;5046651;28;20052;-56
2023/04/21 04:13:38;;;;;;;34.92;11.35;;;10.00;91.40;;;;;;5046551;28;20033;-56
2023/04/21 04:16:04;;;;;;;27.52;10.13;;;9.90;91.30;;;;;;5046522;28;20024;-57
2023/04/21 04:18:30;;;;;;;31.38;10.40;;;9.90;91.40;;;;;;5045539;28;20093;-56
2023/04/21 04:20:55;;;;;;;22.77;9.68;;;10.00;91.40;;;;;;5047866;28;20113;-56
2023/04/21 04:23:21;;;;;;;26.35;9.30;;;9.90;91.30;;;;;;5046329;28;20544;-56
2023/04/21 04:25:48;;;;;;;23.13;9.32;;;9.90;91.30;;;;;;5046034;28;20025;-56
2023/04/21 04:28:14;;;;;;;29.15;9.93;;;10.00;91.30;;;;;;5046373;28;20041;-56
2023/04/21 04:30:40;;;;;;;34.63;9.98;;;9.90;91.30;;;;;;5044493;28;20025;-56
2023/04/21 04:33:05;;;;;;;34.15;10.15;;;9.90;91.30;;;;;;5046076;28;20072;-57
2023/04/21 04:35:31;;;;;;;27.10;9.55;;;9.90;91.40;;;;;;5046157;28;20018;-56
2023/04/21 04:37:56;;;;;;;22.02;9.10;;;9.90;91.40;;;;;;5046020;28;20057;-56
2023/04/21 04:40:22;;;;;;;25.80;8.77;;;9.90;91.40;;;;;;5044839;28;20026;-56
2023/04/21 04:42:47;;;;;;;32.42;9.30;;;9.90;91.40;;;;;;5046129;28;20125;-56
2023/04/21 04:45:15;;;;;;;27.30;9.93;;;9.90;91.40;;;;;;5044647;28;20032;-57
2023/04/21 04:47:41;;;;;;;24.88;8.95;;;10.10;91.50;;;;;;5046006;28;20044;-56
2023/04/21 04:50:06;;;;;;;32.35;9.50;;;9.80;91.40;;;;;;5045801;28;20029;-56
2023/04/21 04:52:32;;;;;;;26.85;8.43;;;9.80;91.40;;;;;;5045741;28;20041;-56
2023/04/21 04:54:58;;;;;;;25.85;8.45;;;9.80;91.40;;;;;;5045596;28;20041;-56
2023/04/21 04:57:23;;;;;;;17.75;8.52;;;9.90;91.70;;;;;;5045601;28;20052;-56
2023/04/21 04:59:54;;;;;;;25.27;7.63;;;9.90;91.70;;;;;;5045610;28;20041;-56
2023/04/21 05:02:21;;;;;;;21.27;8.40;;;9.80;91.60;;;;;;5045785;28;20044;-56
2023/04/21 05:04:46;;;;;;;20.27;7.68;;;9.80;91.60;;;;;;5045980;28;20022;-56
2023/04/21 05:07:12;;;;;;;19.15;8.23;;;9.90;91.60;;;;;;5045894;28;20040;-56
2023/04/21 05:09:38;;;;;;;20.15;7.63;;;9.90;91.70;;;;;;5045665;28;20478;-56
2023/04/21 05:12:03;;;;;;;16.58;7.57;;;9.80;91.70;;;;;;5045790;28;20112;-56
2023/04/21 05:14:29;;;;;;;19.50;7.70;;;9.80;91.60;;;;;;5045707;28;20036;-56
2023/04/21 05:16:55;;;;;;;16.58;6.85;;;9.90;91.70;;;;;;5044107;28;20030;-56
2023/04/21 05:19:20;;;;;;;17.92;7.60;;;9.80;91.70;;;;;;5044017;28;20025;-56
2023/04/21 05:21:46;;;;;;;15.77;7.10;;;9.80;91.70;;;;;;5044227;28;20083;-56
2023/04/21 05:24:11;;;;;;;13.80;7.13;;;9.80;91.70;;;;;;5043680;28;20022;-56
2023/04/21 05:26:37;;;;;;;11.75;6.78;;;9.90;91.80;;;;;;5027374;28;20446;-56
2023/04/21 05:29:03;;;;;;;16.48;7.20;;;9.80;92.00;;;;;;5045029;28;20053;-56
2023/04/21 05:31:28;;;;;;;12.63;7.80;;;10.00;91.80;;;;;;5045350;28;20029;-56
2023/04/21 05:33:54;;;;;;;13.82;6.78;;;9.90;91.80;;;;;;5045169;28;20458;-57
2023/04/21 05:36:19;;;;;;;14.68;7.38;;;9.80;91.80;;;;;;5045171;28;20129;-57
2023/04/21 05:38:45;;;;;;;13.98;7.10;;;9.80;91.80;;;;;;5045086;28;20029;-57
2023/04/21 05:41:10;;;;;;;13.80;7.63;;;9.80;91.80;;;;;;5045836;28;20045;-56
2023/04/21 05:43:36;;;;;;;14.95;7.10;;;9.80;91.80;;;;;;5049059;28;20388;-56
2023/04/21 05:46:02;;;;;;;17.95;7.05;;;9.80;91.80;;;;;;5048638;28;20033;-56
2023/04/21 05:48:28;;;;;;;15.15;7.05;;;9.80;91.80;;;;;;5048799;28;20109;-56
2023/04/21 05:50:54;;;;;;;21.75;7.50;;;9.80;91.80;;;;;;5048956;28;20033;-57
2023/04/21 05:53:20;;;;;;;11.80;6.38;;;9.80;91.80;;;;;;5047219;28;20107;-56
2023/04/21 05:55:45;;;;;;;15.23;6.93;;;9.80;91.80;;;;;;5048664;28;20034;-56
2023/04/21 05:58:11;;;;;;;14.73;7.15;;;9.80;91.70;;;;;;5048618;28;20029;-56
2023/04/21 06:00:37;;;;;;;16.40;6.82;;;9.80;91.80;;;;;;5048272;28;20196;-56
2023/04/21 06:03:02;;;;;;;13.18;6.40;;;9.80;91.80;;;;;;5049281;28;20096;-56
2023/04/21 06:05:28;;;;;;;10.93;6.47;;;9.80;91.70;;;;;;5049631;28;20085;-56
2023/04/21 06:07:53;;;;;;;15.15;6.90;;;9.80;91.80;;;;;;5049385;28;20087;-56
2023/04/21 06:10:19;;;;;;;16.58;6.82;;;9.90;91.80;;;;;;5048018;28;20328;-56
2023/04/21 06:12:45;;;;;;;12.63;7.30;;;9.80;91.70;;;;;;5048032;28;20105;-56
2023/04/21 06:15:11;;;;;;;17.08;7.38;;;9.80;91.70;;;;;;5048171;28;20030;-57
2023/04/21 06:17:36;;;;;;;16.05;7.07;;;9.80;91.80;;;;;;5046828;28;20022;-56
2023/04/21 06:20:02;;;;;;;13.38;7.00;;;9.80;91.70;;;;;;5045127;28;20496;-56
2023/04/21 06:22:28;;;;;;;12.07;6.30;;;9.80;91.70;;;;;;5045803;28;20028;-56
2023/04/21 06:24:54;;;;;;;10.63;6.45;;;9.80;91.80;;;;;;5047679;28;20030;-56
2023/04/21 06:27:19;;;;;;;11.98;6.53;;;9.80;91.80;;;;;;5047936;28;20031;-56
2023/04/21 06:29:45;;;;;;;8.75;5.68;;;9.90;91.80;;;;;;5039676;28;20782;-56
2023/04/21 06:32:11;;;;;;;14.02;6.90;;;9.80;92.00;;;;;;5028935;28;20097;-56
2023/04/21 06:34:37;;;;;;;9.88;6.63;;;9.80;91.70;;;;;;5027441;28;20034;-57
2023/04/21 06:37:02;;;;;;;11.13;6.65;;;10.10;91.80;;;;;;5027650;28;20092;-56
2023/04/21 06:39:28;;;;;;;10.30;6.65;;;9.90;91.80;;;;;;5027624;28;20033;-56
2023/04/21 06:41:54;;;;;;;11.48;6.35;;;9.90;91.80;;;;;;5027186;28;20034;-56
2023/04/21 06:44:19;;;;;;;13.52;6.30;;;10.00;91.80;;;;;;5027528;28;20037;-57
2023/04/21 06:46:46;;;;;;;13.13;6.55;;;9.90;91.80;;;;;;5027549;28;20117;-56
2023/04/21 06:49:11;;;;;;;12.50;6.97;;;10.00;91.80;;;;;;5027525;28;20033;-55
2023/04/21 06:51:37;;;;;;;13.60;6.90;;;9.90;91.80;;;;;;5027101;28;20088;-56
2023/04/21 06:54:04;;;;;;;8.40;6.15;;;9.90;91.70;;;;;;5026739;28;20034;-56
2023/04/21 06:56:29;;;;;;;18.02;8.00;;;10.00;91.70;;;;;;5027425;28;20053;-57
2023/04/21 06:58:55;;;;;;;22.60;7.93;;;10.00;91.70;;;;;;5027245;28;20026;-56
2023/04/21 07:01:23;;;;;;;27.80;7.20;;;9.90;91.70;;;;;;5026934;28;20037;-57
2023/04/21 07:03:49;;;;;;;18.85;7.13;;;10.00;91.70;;;;;;5027130;28;20046;-56
2023/04/21 07:06:14;;;;;;;17.73;7.50;;;10.00;91.70;;;;;;5027155;28;20034;-56
2023/04/21 07:08:40;;;;;;;24.33;7.95;;;10.00;91.70;;;;;;5027156;28;20040;-57
2023/04/21 07:11:06;;;;;;;21.25;7.95;;;10.00;91.70;;;;;;5027001;28;20037;-56
2023/04/21 07:13:31;;;;;;;13.95;7.03;;;10.00;91.70;;;;;;5027305;28;20030;-57
2023/04/21 07:15:57;;;;;;;18.25;8.10;;;10.00;91.70;;;;;;5025078;28;20038;-56
2023/04/21 07:18:22;;;;;;;26.73;8.18;;;10.00;91.70;;;;;;5024999;28;20513;-56
2023/04/21 07:20:48;;;;;;;27.35;8.15;;;10.00;91.70;;;;;;5024735;28;20037;-56
2023/04/21 07:23:13;;;;;;;23.70;7.78;;;10.00;91.70;;;;;;5024577;28;20053;-56
2023/04/21 07:25:39;;;;;;;24.13;7.97;;;10.20;91.80;;;;;;5023970;28;20029;-56
2023/04/21 07:28:05;;;;;;;26.50;8.02;;;10.10;91.70;;;;;;5040028;28;20037;-56
2023/04/21 07:30:30;;;;;;;16.52;8.30;;;10.10;92.10;;;;;;5024660;28;20034;-57
2023/04/21 07:32:56;;;;;;;27.33;8.57;;;10.00;91.80;;;;;;5026290;28;20022;-56
2023/04/21 07:35:22;;;;;;;42.90;10.60;;;10.00;91.80;;;;;;5026570;28;20045;-57
2023/04/21 07:37:48;;;;;;;36.50;9.00;;;10.10;91.90;;;;;;5041629;28;20034;-56
2023/04/21 07:40:13;;;;;;;32.95;9.48;;;10.10;91.90;;;;;;5025988;28;20038;-57
2023/04/21 07:42:39;;;;;;;35.03;9.45;;;10.20;91.80;;;;;;5026514;28;20064;-56
2023/04/21 07:45:05;;;;;;;68.53;13.05;;;10.20;91.80;;;;;;5025448;28;20417;-56
2023/04/21 07:47:31;;;;;;;125.85;17.02;;;10.20;91.90;;;;;;5040929;28;20019;-56
2023/04/21 07:49:56;;;;;;;63.13;12.57;;;10.20;92.00;;;;;;5041488;28;20029;-56
2023/04/21 07:52:22;;;;;;;62.95;11.65;;;10.20;92.30;;;;;;5038878;28;20090;-56
2023/04/21 07:54:47;;;;;;;70.05;11.93;;;10.30;92.00;;;;;;5025796;28;20054;-56
2023/04/21 07:57:13;;;;;;;78.38;13.38;;;10.30;92.10;;;;;;5028486;28;20477;-56
2023/04/21 07:59:39;;;;;;;84.13;13.27;;;10.40;92.00;;;;;;5038495;28;20041;-56
2023/04/21 08:02:05;;;;;;;76.57;14.88;;;10.40;92.00;;;;;;5050524;28;20113;-57
2023/04/21 08:04:30;;;;;;;74.88;12.90;;;10.40;92.00;;;;;;5042552;28;20036;-56
2023/04/21 08:06:56;;;;;;;69.45;12.35;;;10.40;92.00;;;;;;5043661;28;20033;-57
2023/04/21 08:09:21;;;;;;;86.10;15.13;;;10.60;91.90;;;;;;5043026;28;20428;-56
2023/04/21 08:11:47;;;;;;;86.35;15.23;;;10.50;91.80;;;;;;5043464;28;20033;-56
2023/04/21 08:14:13;;;;;;;95.32;15.02;;;10.60;92.00;;;;;;5048040;28;20051;-56
2023/04/21 08:16:40;;;;;;;102.97;14.98;;;10.70;91.90;;;;;;5051509;28;20057;-56
2023/04/21 08:19:06;;;;;;;114.78;18.42;;;10.80;91.90;;;;;;5049116;28;20373;-56
2023/04/21 08:21:32;;;;;;;105.45;17.52;;;10.70;91.90;;;;;;5042748;28;20029;-56
2023/04/21 08:23:58;;;;;;;107.65;17.00;;;10.60;91.90;;;;;;5039819;28;20033;-56
2023/04/21 08:26:24;;;;;;;83.57;15.35;;;10.70;92.00;;;;;;5042224;28;20554;-56
2023/04/21 08:28:50;;;;;;;114.88;18.92;;;10.70;91.90;;;;;;5033189;28;20034;-56
2023/04/21 08:31:16;;;;;;;114.07;18.27;;;10.70;92.00;;;;;;5024392;28;20038;-56
2023/04/21 08:33:42;;;;;;;140.07;19.40;;;10.80;92.10;;;;;;5023811;28;20115;-56
2023/04/21 08:36:08;;;;;;;208.27;25.63;;;10.80;92.10;;;;;;5055025;28;20076;-56
2023/04/21 08:38:34;;;;;;;142.75;22.60;;;10.90;92.10;;;;;;5032794;28;20037;-56
2023/04/21 08:41:00;;;;;;;107.43;18.10;;;10.90;92.10;;;;;;5036381;28;20067;-57
2023/04/21 08:43:27;;;;;;;129.00;20.25;;;11.00;92.00;;;;;;5041244;28;20682;-57
2023/04/21 08:45:55;;;;;;;140.98;19.92;;;11.00;92.00;;;;;;5043498;28;20036;-56
2023/04/21 08:48:22;;;;;;;171.20;23.27;;;11.10;91.70;;;;;;5045076;28;20084;-56
2023/04/21 08:50:48;;;;;;;135.85;20.30;;;11.30;91.90;;;;;;5043199;28;20029;-56
2023/04/21 08:53:14;;;;;;;109.18;18.38;;;11.10;91.80;;;;;;5044514;28;20089;-56
2023/04/21 08:55:40;;;;;;;152.98;19.77;;;11.10;91.70;;;;;;5041103;28;20037;-56
2023/04/21 08:58:06;;;;;;;182.32;24.00;;;11.20;91.60;;;;;;5038515;28;20041;-56
2023/04/21 09:00:31;;;;;;;161.55;21.02;;;11.40;91.60;;;;;;5040159;28;20034;-57
2023/04/21 09:02:58;;;;;;;165.18;22.02;;;11.30;91.90;;;;;;5058891;28;20029;-56
2023/04/21 09:05:28;;;;;;;145.15;20.55;;;11.30;91.60;;;;;;5044363;28;20029;-57
2023/04/21 09:08:09;;;;;;;158.18;21.83;;;11.30;91.60;;;;;;5042410;28;20033;-56
2023/04/21 09:11:28;;;;;;;137.20;21.40;;;11.40;91.60;;;;;;5040338;28;20030;-57
2023/04/21 09:13:56;;;;;;;132.45;18.40;;;11.40;91.60;;;;;;5040989;28;20045;-56
2023/04/21 09:16:21;;;;;;;161.30;22.13;;;11.60;91.40;;;;;;5041330;28;20057;-55
2023/04/21 09:18:47;;;;;;;177.32;22.17;;;11.50;91.40;;;;;;5042853;28;20036;-56
2023/04/21 09:21:14;;;;;;;169.20;23.00;;;11.70;91.60;;;;;;5042746;28;20018;-56
2023/04/21 09:23:50;;;;;;;172.63;23.75;;;11.70;91.50;;;;;;5044329;28;20041;-56
2023/04/21 09:26:16;;;;;;;164.68;22.65;;;11.90;91.50;;;;;;5044437;28;20043;-56
2023/04/21 09:28:46;;;;;;;177.60;24.00;;;11.80;91.50;;;;;;5042974;28;20147;-56
2023/04/21 09:31:15;;;;;;;153.43;20.98;;;12.00;91.50;;;;;;5044129;28;20393;-56
2023/04/21 09:33:54;;;;;;;165.65;25.30;;;11.80;91.20;;;;;;5044104;28;20115;-56
2023/04/21 09:36:25;;;;;;;188.60;24.02;;;11.90;91.10;;;;;;5043645;28;20105;-56
2023/04/21 09:38:53;;;;;;;179.82;23.50;;;12.00;91.10;;;;;;5043879;28;20029;-56
2023/04/21 09:41:19;;;;;;;160.75;24.20;;;12.00;91.10;;;;;;5043706;28;20037;-56
2023/04/21 09:43:44;;;;;;;205.68;24.90;;;12.10;91.30;;;;;;5043944;28;20497;-56
2023/04/21 09:46:11;;;;;;;191.13;24.95;;;12.10;91.30;;;;;;5042179;28;20090;-56
2023/04/21 09:48:36;;;;;;;198.68;26.83;;;12.20;91.50;;;;;;5044080;28;20040;-56
2023/04/21 09:51:02;;;;;;;232.05;27.85;;;12.20;91.60;;;;;;5042515;28;20030;-56
2023/04/21 09:53:28;;;;;;;223.68;27.60;;;12.20;91.70;;;;;;5042446;28;20029;-56
2023/04/21 09:55:55;;;;;;;200.75;24.48;;;12.30;91.60;;;;;;5044218;28;20028;-57
2023/04/21 09:58:22;;;;;;;232.50;30.85;;;12.40;91.30;;;;;;5043610;28;20029;-57
2023/04/21 10:00:48;;;;;;;171.55;24.23;;;12.40;91.50;;;;;;5058692;28;20041;-56
2023/04/21 10:03:13;;;;;;;164.25;23.23;;;12.40;91.60;;;;;;5041382;28;20029;-57
2023/04/21 10:05:39;;;;;;;177.25;24.25;;;12.40;91.50;;;;;;5038677;28;20025;-57
2023/04/21 10:08:06;;;;;;;132.88;21.08;;;12.50;91.70;;;;;;5042079;28;20049;-57
2023/04/21 10:10:32;;;;;;;169.27;22.15;;;12.50;91.60;;;;;;5043756;28;20032;-56
2023/04/21 10:12:57;;;;;;;222.48;29.25;;;12.50;91.30;;;;;;5041925;28;20080;-56
2023/04/21 10:15:39;;;;;;;176.23;25.65;;;12.60;91.60;;;;;;5040567;28;20057;-56
2023/04/21 10:18:17;;;;;;;163.00;22.27;;;12.50;91.60;;;;;;5048518;28;20084;-56
2023/04/21 10:20:56;;;;;;;152.35;22.73;;;12.60;91.60;;;;;;5049011;28;20017;-56
2023/04/21 10:23:45;;;;;;;158.48;22.05;;;12.60;91.70;;;;;;5046038;28;20040;-56
2023/04/21 10:26:10;;;;;;;95.03;15.57;;;12.60;91.60;;;;;;5037533;28;20034;-56
2023/04/21 10:29:00;;;;;;;118.82;18.10;;;12.70;91.20;;;;;;5044885;28;20056;-56
2023/04/21 10:31:51;;;;;;;104.75;15.75;;;12.70;91.10;;;;;;5025805;28;20121;-56
2023/04/21 10:34:39;;;;;;;119.63;18.05;;;12.70;91.00;;;;;;5044277;28;20099;-56
2023/04/21 10:37:05;;;;;;;149.45;21.42;;;12.80;91.10;;;;;;5038187;28;20249;-56
2023/04/21 10:39:34;;;;;;;138.70;22.15;;;12.90;91.10;;;;;;5059954;28;20081;-56
2023/04/21 10:42:12;;;;;;;200.35;25.73;;;13.10;91.30;;;;;;5065288;28;20478;-56
2023/04/21 10:44:51;;;;;;;160.60;24.15;;;12.90;91.60;;;;;;5065501;28;20029;-56
2023/04/21 10:47:35;;;;;;;174.68;22.60;;;12.90;91.70;;;;;;5066661;28;20029;-56
2023/04/21 10:50:24;;;;;;;208.05;25.15;;;13.10;91.80;;;;;;5042334;28;20098;-57
2023/04/21 10:53:12;;;;;;;178.95;24.42;;;13.00;91.80;;;;;;5035615;28;20164;-56
2023/04/21 10:55:37;;;;;;;120.32;20.58;;;13.00;91.70;;;;;;5038011;28;20465;-56
2023/04/21 10:58:10;;;;;;;110.93;16.73;;;13.10;91.70;;;;;;5030559;28;20026;-56
2023/04/21 11:00:37;;;;;;;103.18;16.88;;;13.10;91.30;;;;;;5046943;28;20136;-55
2023/04/21 11:03:04;;;;;;;107.00;18.13;;;13.10;91.30;;;;;;5044688;28;20544;-56
2023/04/21 11:05:37;;;;;;;111.32;17.75;;;13.20;91.30;;;;;;5045275;28;20021;-57
2023/04/21 11:08:13;;;;;;;130.63;19.67;;;13.30;91.20;;;;;;5046426;28;20088;-56
2023/04/21 11:10:45;;;;;;;134.95;21.58;;;13.30;91.30;;;;;;5048239;28;20100;-56
2023/04/21 11:13:11;;;;;;;246.05;30.05;;;13.40;91.40;;;;;;5046532;28;20037;-56
2023/04/21 11:15:37;;;;;;;205.25;28.13;;;13.40;91.50;;;;;;5046649;28;20093;-56
2023/04/21 11:18:02;;;;;;;169.05;24.60;;;13.50;91.60;;;;;;5046023;28;20039;-56
2023/04/21 11:20:28;;;;;;;176.00;24.33;;;13.50;91.70;;;;;;5047630;28;20035;-56
2023/04/21 11:22:55;;;;;;;174.70;22.25;;;13.60;91.60;;;;;;5028793;28;20081;-56
2023/04/21 11:25:21;;;;;;;117.32;18.15;;;13.60;91.50;;;;;;5046513;28;20029;-56
2023/04/21 11:27:56;;;;;;;123.35;18.30;;;13.60;91.40;;;;;;5044908;28;20511;-56
2023/04/21 11:30:31;;;;;;;103.03;16.50;;;13.70;91.30;;;;;;5046175;28;20039;-56
2023/04/21 11:32:57;;;;;;;127.65;19.75;;;13.90;91.20;;;;;;5045918;28;20034;-56
2023/04/21 11:35:22;;;;;;;120.65;19.45;;;13.80;91.20;;;;;;5046438;28;20095;-56
2023/04/21 11:37:50;;;;;;;111.80;18.20;;;13.80;91.10;;;;;;5044213;28;20033;-56
2023/04/21 11:40:16;;;;;;;107.40;18.73;;;13.90;91.20;;;;;;5045011;28;20087;-57
2023/04/21 11:42:41;;;;;;;110.00;21.13;;;13.90;91.20;;;;;;5045893;28;20030;-57
2023/04/21 11:45:08;;;;;;;108.50;19.77;;;14.00;91.30;;;;;;5042638;28;20048;-56
2023/04/21 11:47:36;;;;;;;180.55;27.90;;;14.00;91.20;;;;;;5045704;28;20136;-56
2023/04/21 11:50:02;;;;;;;135.15;20.88;;;14.00;91.30;;;;;;5045330;28;20056;-56
2023/04/21 11:52:29;;;;;;;112.65;19.13;;;14.00;91.40;;;;;;5045785;28;20474;-57
2023/04/21 11:55:05;;;;;;;136.18;19.95;;;14.10;91.40;;;;;;5045784;28;20091;-57
2023/04/21 11:57:32;;;;;;;114.60;19.05;;;14.10;91.20;;;;;;5040848;28;20025;-56
2023/04/21 12:00:01;;;;;;;179.45;24.30;;;14.20;91.20;;;;;;5036795;28;20034;-57
2023/04/21 12:02:28;;;;;;;152.98;22.30;;;14.20;91.10;;;;;;5039817;28;20048;-56
2023/04/21 12:04:57;;;;;;;121.03;19.13;;;14.30;91.10;;;;;;5045147;28;20025;-56
2023/04/21 12:07:23;;;;;;;159.43;22.98;;;14.40;91.10;;;;;;5045686;28;20032;-55
2023/04/21 12:09:51;;;;;;;117.32;18.35;;;14.40;91.10;;;;;;5041399;28;20486;-56
2023/04/21 12:12:16;;;;;;;148.70;22.70;;;14.50;91.10;;;;;;5040214;28;20030;-56
2023/04/21 12:14:43;;;;;;;212.10;28.17;;;14.50;91.00;;;;;;5042461;28;20040;-56
2023/04/21 12:17:08;;;;;;;189.20;26.35;;;14.60;91.00;;;;;;5039924;28;20029;-56
2023/04/21 12:19:39;;;;;;;164.65;23.48;;;14.60;90.90;;;;;;5045150;28;20045;-56
2023/04/21 12:22:17;;;;;;;186.38;25.58;;;14.70;90.80;;;;;;5044749;28;20049;-56
2023/04/21 12:24:43;;;;;;;120.55;18.88;;;14.70;90.70;;;;;;5052518;28;20473;-57
2023/04/21 12:27:09;;;;;;;121.43;17.30;;;14.80;90.60;;;;;;5043216;28;20025;-56
2023/04/21 12:29:36;;;;;;;177.73;23.38;;;14.80;90.50;;;;;;5035676;28;20120;-56